Time;durP1;ratioP1;P1;durP2;ratioP2;P2;SDS_P1;SDS_P2;PMS_P1;PMS_P2;Temp;Humidity;BMP_temperature;BMP_pressure;BME280_temperature;BME280_humidity;BME280_pressure;Samples;Min_cycle;Max_cycle;Signal;HPM_P1;HPM_P2
2024/04/04 00:01:53;;;;;;;19.20;14.60;;;;;;;8.17;67.78;99949.52;111264;1254;22409;-72
2024/04/04 00:04:22;;;;;;;18.70;14.20;;;;;;;8.17;68.04;99945.71;111206;1254;21965;-71
2024/04/04 00:06:51;;;;;;;16.90;14.50;;;;;;;8.16;68.25;99948.92;111290;1254;22127;-71
2024/04/04 00:09:19;;;;;;;18.90;13.50;;;;;;;8.17;68.10;99950.41;111279;1254;22569;-70
2024/04/04 00:11:51;;;;;;;16.80;13.80;;;;;;;8.19;68.28;99951.82;111322;1241;23811;-71
2024/04/04 00:14:19;;;;;;;18.30;13.50;;;;;;;8.21;68.55;99955.90;111258;1254;21953;-71
2024/04/04 00:16:48;;;;;;;16.90;13.60;;;;;;;8.23;68.44;99956.70;111253;1241;22338;-70
2024/04/04 00:19:17;;;;;;;18.00;11.60;;;;;;;8.25;68.44;99955.48;111197;1254;21971;-72
2024/04/04 00:21:45;;;;;;;14.80;11.80;;;;;;;8.28;68.53;99956.16;111242;1254;22089;-71
2024/04/04 00:24:14;;;;;;;16.10;12.40;;;;;;;8.30;68.56;99952.90;111288;1254;22547;-71
2024/04/04 00:26:43;;;;;;;19.50;13.20;;;;;;;8.31;68.63;99955.11;111218;1254;23676;-72
2024/04/04 00:29:11;;;;;;;18.30;14.00;;;;;;;8.31;68.97;99950.91;111251;1244;22377;-71
2024/04/04 00:31:40;;;;;;;14.40;11.60;;;;;;;8.32;68.94;99955.56;111257;1254;22001;-71
2024/04/04 00:34:09;;;;;;;16.60;13.80;;;;;;;8.30;69.14;99952.48;111228;1242;23014;-71
2024/04/04 00:36:38;;;;;;;15.90;13.70;;;;;;;8.27;69.39;99948.69;111268;1254;21964;-70
2024/04/04 00:39:07;;;;;;;17.80;14.60;;;;;;;8.25;69.53;99950.02;111304;1254;21963;-71
2024/04/04 00:41:35;;;;;;;21.00;16.10;;;;;;;8.27;69.33;99952.55;111242;1254;21968;-71
2024/04/04 00:44:04;;;;;;;17.40;13.60;;;;;;;8.24;69.72;99953.78;111214;1254;21958;-71
2024/04/04 00:46:34;;;;;;;19.60;15.30;;;;;;;8.23;69.93;99952.44;111323;1254;24316;-71
2024/04/04 00:49:02;;;;;;;14.60;12.60;;;;;;;8.23;69.87;99949.11;111278;1254;22027;-71
2024/04/04 00:51:31;;;;;;;17.60;14.00;;;;;;;8.22;70.25;99951.98;111231;1254;21968;-71
2024/04/04 00:54:00;;;;;;;20.20;15.20;;;;;;;8.22;70.33;99951.67;111268;1254;21955;-71
2024/04/04 00:56:29;;;;;;;16.20;13.90;;;;;;;8.22;70.37;99947.95;111268;1254;23704;-72
2024/04/04 00:58:57;;;;;;;17.00;14.70;;;;;;;8.21;70.70;99949.60;111387;1251;21953;-73
2024/04/04 01:01:26;;;;;;;19.20;15.70;;;;;;;8.21;70.93;99946.65;111219;1254;21953;-71
2024/04/04 01:03:55;;;;;;;17.70;14.10;;;;;;;8.21;71.06;99945.25;112034;1254;21967;-71
2024/04/04 01:06:31;;;;;;;19.70;15.80;;;;;;;8.22;71.05;99942.57;112941;1254;22026;-71
2024/04/04 01:09:00;;;;;;;18.20;16.10;;;;;;;8.22;71.25;99939.73;111306;1254;22969;-71
2024/04/04 01:11:29;;;;;;;19.50;16.20;;;;;;;8.22;71.72;99936.04;111276;1254;23131;-70
2024/04/04 01:13:58;;;;;;;23.10;16.40;;;;;;;8.20;71.71;99935.64;111262;1254;21958;-71
2024/04/04 01:16:26;;;;;;;19.00;16.70;;;;;;;8.17;71.97;99937.64;111279;1254;23020;-71
2024/04/04 01:18:55;;;;;;;27.70;20.10;;;;;;;8.14;71.94;99934.15;111283;1254;21956;-72
2024/04/04 01:21:25;;;;;;;27.30;21.10;;;;;;;8.15;72.24;99942.98;111301;1254;21955;-70
2024/04/04 01:23:54;;;;;;;26.90;21.80;;;;;;;8.20;72.25;99946.88;111305;1254;22010;-72
2024/04/04 01:26:22;;;;;;;32.60;23.60;;;;;;;8.24;72.24;99946.78;111298;1254;21959;-71
2024/04/04 01:28:51;;;;;;;30.40;23.40;;;;;;;8.28;72.09;99944.09;111264;1254;22041;-72
2024/04/04 01:31:20;;;;;;;27.10;20.60;;;;;;;8.31;72.21;99941.07;111284;1254;23576;-71
2024/04/04 01:33:48;;;;;;;24.10;19.40;;;;;;;8.30;72.41;99930.08;111257;1254;23073;-71
2024/04/04 01:36:17;;;;;;;24.80;19.60;;;;;;;8.24;72.88;99922.77;111214;1254;21963;-70
2024/04/04 01:38:45;;;;;;;22.20;18.80;;;;;;;8.21;73.04;99914.89;111285;1254;23703;-70
2024/04/04 01:41:14;;;;;;;21.90;18.10;;;;;;;8.23;73.18;99910.73;111252;1254;22166;-70
2024/04/04 01:43:43;;;;;;;21.40;18.00;;;;;;;8.25;73.34;99910.77;111244;1254;22159;-71
2024/04/04 01:46:11;;;;;;;20.10;16.40;;;;;;;8.28;73.52;99912.16;111282;1254;21955;-72
2024/04/04 01:48:40;;;;;;;23.80;17.90;;;;;;;8.28;73.46;99914.59;111287;1254;24002;-71
2024/04/04 01:51:09;;;;;;;20.80;16.90;;;;;;;8.30;73.56;99910.27;111238;1254;21971;-70
2024/04/04 01:53:39;;;;;;;19.80;17.70;;;;;;;8.32;73.55;99910.11;111284;1254;23678;-71
2024/04/04 01:56:07;;;;;;;20.10;17.10;;;;;;;8.35;73.56;99909.22;111306;1254;23683;-71
2024/04/04 01:58:36;;;;;;;22.60;20.00;;;;;;;8.38;73.47;99906.19;111218;1254;21963;-71
2024/04/04 02:01:04;;;;;;;21.40;18.50;;;;;;;8.41;73.54;99902.48;111285;1254;21961;-71
2024/04/04 02:03:33;;;;;;;24.00;19.10;;;;;;;8.43;73.53;99905.35;111255;1254;21963;-71
2024/04/04 02:06:02;;;;;;;21.10;18.30;;;;;;;8.46;73.51;99903.59;111265;1254;21969;-70
2024/04/04 02:08:31;;;;;;;23.50;20.00;;;;;;;8.46;73.48;99901.83;111250;1253;21951;-71
2024/04/04 02:10:59;;;;;;;24.30;19.70;;;;;;;8.45;73.55;99898.03;111272;1254;22104;-70
2024/04/04 02:13:28;;;;;;;22.00;19.20;;;;;;;8.45;73.59;99892.41;111269;1254;21953;-71
2024/04/04 02:15:57;;;;;;;28.60;20.10;;;;;;;8.44;73.66;99890.56;111263;1248;23013;-71
2024/04/04 02:18:26;;;;;;;25.00;21.20;;;;;;;8.42;73.64;99884.71;111228;1254;22037;-70
2024/04/04 02:20:55;;;;;;;25.50;20.00;;;;;;;8.41;73.70;99882.33;111349;1254;21949;-71
2024/04/04 02:23:23;;;;;;;23.50;20.20;;;;;;;8.39;73.84;99884.18;111262;1254;21991;-70
2024/04/04 02:25:52;;;;;;;22.80;19.80;;;;;;;8.37;74.09;99891.70;111255;1254;21953;-70
2024/04/04 02:28:21;;;;;;;25.60;21.40;;;;;;;8.38;74.07;99894.47;111240;1254;21979;-72
2024/04/04 02:30:50;;;;;;;22.30;20.00;;;;;;;8.39;74.07;99897.54;111240;1254;21958;-71
2024/04/04 02:33:18;;;;;;;21.90;19.60;;;;;;;8.37;74.13;99895.90;111241;1254;22422;-71
2024/04/04 02:35:55;;;;;;;23.40;21.00;;;;;;;8.34;74.44;99897.55;111274;1254;21964;-71
2024/04/04 02:38:25;;;;;;;26.20;21.40;;;;;;;8.30;74.71;99896.40;111241;1254;21998;-71
2024/04/04 02:40:54;;;;;;;23.00;20.70;;;;;;;8.29;74.74;99895.91;111321;1254;21993;-72
2024/04/04 02:43:22;;;;;;;25.50;21.10;;;;;;;8.29;74.94;99895.58;111258;1254;21952;-70
2024/04/04 02:46:02;;;;;;;21.60;19.30;;;;;;;8.27;75.13;99893.44;111265;1254;22999;-71
2024/04/04 02:48:31;;;;;;;21.00;18.90;;;;;;;8.24;75.40;99891.55;111276;1254;22056;-71
2024/04/04 02:50:59;;;;;;;25.80;19.80;;;;;;;8.19;75.81;99891.19;111252;1254;23006;-70
2024/04/04 02:53:28;;;;;;;20.40;18.30;;;;;;;8.13;76.05;99885.44;111259;1254;23121;-71
2024/04/04 02:55:59;;;;;;;21.20;18.80;;;;;;;8.11;75.98;99886.08;111257;1254;22770;-70
2024/04/04 02:58:28;;;;;;;22.80;20.40;;;;;;;8.11;75.95;99885.02;111250;1254;22089;-71
2024/04/04 03:01:05;;;;;;;23.10;20.50;;;;;;;8.12;76.13;99883.05;111229;1254;21969;-71
2024/04/04 03:03:33;;;;;;;22.60;20.30;;;;;;;8.12;76.17;99884.14;111271;1254;22498;-71
2024/04/04 03:06:03;;;;;;;22.90;20.40;;;;;;;8.12;76.30;99890.63;111286;1254;23692;-72
2024/04/04 03:08:32;;;;;;;20.90;18.90;;;;;;;8.12;76.23;99890.08;111243;1254;22188;-71
2024/04/04 03:11:00;;;;;;;22.70;18.80;;;;;;;8.14;76.19;99890.44;111293;1254;21972;-71
2024/04/04 03:13:30;;;;;;;22.80;20.40;;;;;;;8.15;76.50;99887.95;111284;1254;23123;-72
2024/04/04 03:15:59;;;;;;;22.80;20.40;;;;;;;8.17;76.32;99888.35;111210;1254;21952;-71
2024/04/04 03:18:28;;;;;;;23.70;21.20;;;;;;;8.18;76.37;99884.77;111240;1254;23628;-71
2024/04/04 03:20:57;;;;;;;21.60;19.30;;;;;;;8.19;76.46;99884.70;111266;1254;21961;-70
2024/04/04 03:23:25;;;;;;;21.70;19.50;;;;;;;8.19;76.53;99886.41;111223;1254;23570;-70
2024/04/04 03:25:54;;;;;;;24.50;22.00;;;;;;;8.22;76.57;99882.23;111301;1254;21953;-70
2024/04/04 03:28:23;;;;;;;23.40;21.00;;;;;;;8.26;76.60;99881.93;111256;1254;22023;-70
2024/04/04 03:30:51;;;;;;;23.60;21.10;;;;;;;8.31;76.51;99881.05;111237;1254;21966;-72
2024/04/04 03:33:20;;;;;;;26.20;23.40;;;;;;;8.32;76.69;99879.94;111251;1254;24168;-72
2024/04/04 03:35:49;;;;;;;26.30;23.50;;;;;;;8.38;76.55;99875.32;111224;1254;21953;-71
2024/04/04 03:38:17;;;;;;;27.50;24.30;;;;;;;8.45;76.38;99873.09;111239;1254;21953;-71
2024/04/04 03:40:54;;;;;;;29.00;23.40;;;;;;;8.48;76.47;99874.65;111266;1254;21955;-71
2024/04/04 03:43:23;;;;;;;27.70;21.70;;;;;;;8.45;76.66;99868.50;111244;1254;21988;-71
2024/04/04 03:45:52;;;;;;;21.60;19.30;;;;;;;8.44;76.81;99867.71;111260;1254;22743;-71
2024/04/04 03:48:21;;;;;;;21.90;18.90;;;;;;;8.43;76.63;99868.84;112317;1260;21989;-71
2024/04/04 03:50:50;;;;;;;21.30;18.70;;;;;;;8.43;76.98;99867.48;112072;1260;21958;-70
2024/04/04 03:53:19;;;;;;;21.80;19.50;;;;;;;8.43;77.25;99864.29;110991;1260;22738;-72
2024/04/04 03:55:47;;;;;;;21.00;18.60;;;;;;;8.44;77.23;99864.38;110649;1255;23582;-71
2024/04/04 03:58:27;;;;;;;19.90;17.60;;;;;;;8.45;77.22;99869.04;110657;1260;21936;-71
2024/04/04 04:00:56;;;;;;;20.10;18.10;;;;;;;8.49;77.08;99873.89;110644;1260;22335;-73
2024/04/04 04:03:24;;;;;;;24.40;18.90;;;;;;;8.53;76.92;99870.66;110641;1260;23041;-71
2024/04/04 04:05:53;;;;;;;20.00;18.00;;;;;;;8.54;77.11;99872.33;110709;1250;21966;-72
2024/04/04 04:08:22;;;;;;;22.70;19.60;;;;;;;8.56;77.22;99874.52;111253;1254;21968;-72
2024/04/04 04:10:50;;;;;;;22.60;19.90;;;;;;;8.57;77.18;99876.88;111294;1254;22417;-71
2024/04/04 04:13:20;;;;;;;22.30;20.10;;;;;;;8.58;77.26;99877.30;111262;1254;22033;-70
2024/04/04 04:15:58;;;;;;;25.00;22.30;;;;;;;8.60;77.28;99877.86;111260;1254;22827;-72
2024/04/04 04:18:28;;;;;;;24.90;22.40;;;;;;;8.63;77.19;99876.64;111239;1254;22315;-70
2024/04/04 04:21:20;;;;;;;23.40;20.80;;;;;;;8.67;77.19;99880.58;111235;1254;21963;-71
2024/04/04 04:23:51;;;;;;;26.20;23.50;;;;;;;8.67;77.48;99881.04;111230;1254;21955;-71
2024/04/04 04:26:20;;;;;;;23.30;20.70;;;;;;;8.72;77.33;99886.00;111326;1254;23676;-70
2024/04/04 04:28:49;;;;;;;24.50;21.70;;;;;;;8.76;77.41;99885.01;111223;1254;22003;-70
2024/04/04 04:31:26;;;;;;;23.80;21.40;;;;;;;8.81;77.43;99877.65;111177;1254;22218;-71
2024/04/04 04:33:58;;;;;;;22.40;19.90;;;;;;;8.85;77.18;99879.65;111224;1254;21997;-70
2024/04/04 04:36:46;;;;;;;27.50;21.30;;;;;;;8.88;77.34;99879.05;111277;1254;21962;-71
2024/04/04 04:39:14;;;;;;;24.00;21.60;;;;;;;8.89;77.50;99879.31;111261;1254;21963;-71
2024/04/04 04:41:43;;;;;;;24.00;20.80;;;;;;;8.92;77.53;99880.38;111275;1254;23599;-71
2024/04/04 04:44:12;;;;;;;23.40;21.20;;;;;;;8.95;77.55;99878.77;111238;1254;23014;-70
2024/04/04 04:46:40;;;;;;;24.70;22.20;;;;;;;8.99;77.40;99881.08;111314;1254;23787;-71
2024/04/04 04:49:09;;;;;;;23.20;20.90;;;;;;;9.04;77.45;99879.00;111241;1254;21953;-71
2024/04/04 04:51:38;;;;;;;21.00;18.80;;;;;;;9.10;77.55;99878.96;111219;1254;22935;-72
2024/04/04 04:54:07;;;;;;;21.10;18.90;;;;;;;9.15;77.42;99884.14;111229;1254;21972;-71
2024/04/04 04:56:35;;;;;;;19.60;17.60;;;;;;;9.20;77.30;99884.86;111230;1254;22548;-71
2024/04/04 04:59:04;;;;;;;19.50;17.40;;;;;;;9.19;77.53;99886.48;111243;1254;23697;-70
2024/04/04 05:01:35;;;;;;;21.80;19.60;;;;;;;9.22;77.43;99884.94;111244;1254;21950;-71
2024/04/04 05:04:05;;;;;;;22.70;20.40;;;;;;;9.25;77.43;99887.69;111229;1254;23569;-71
2024/04/04 05:06:34;;;;;;;19.70;17.80;;;;;;;9.29;77.26;99891.42;111251;1254;24381;-71
2024/04/04 05:09:03;;;;;;;21.60;19.30;;;;;;;9.34;77.07;99891.55;111298;1254;21953;-71
2024/04/04 05:11:32;;;;;;;21.70;19.10;;;;;;;9.39;76.91;99896.64;111245;1254;22917;-71
2024/04/04 05:14:01;;;;;;;23.60;20.20;;;;;;;9.43;76.92;99898.81;111254;1254;23678;-70
2024/04/04 05:16:30;;;;;;;22.30;18.80;;;;;;;9.46;77.02;99902.81;111256;1254;21963;-70
2024/04/04 05:18:59;;;;;;;27.10;22.10;;;;;;;9.52;76.90;99902.80;111248;1254;23676;-71
2024/04/04 05:21:27;;;;;;;25.80;20.70;;;;;;;9.54;76.93;99904.55;110671;1259;22025;-71
2024/04/04 05:23:56;;;;;;;33.00;24.20;;;;;;;9.57;76.65;99906.27;110680;1259;21996;-71
2024/04/04 05:26:24;;;;;;;30.40;22.40;;;;;;;9.60;76.54;99909.23;110698;1259;21958;-72
2024/04/04 05:28:55;;;;;;;38.50;26.30;;;;;;;9.62;76.65;99908.55;110667;1259;21959;-71
2024/04/04 05:31:24;;;;;;;34.80;25.90;;;;;;;9.66;76.69;99903.34;110706;1259;23686;-70
2024/04/04 05:33:53;;;;;;;36.10;28.30;;;;;;;9.70;76.40;99901.28;110698;1259;21982;-71
2024/04/04 05:36:23;;;;;;;37.80;27.40;;;;;;;9.72;76.23;99900.96;110761;1259;22036;-72
2024/04/04 05:38:52;;;;;;;38.20;29.60;;;;;;;9.74;76.23;99902.19;110727;1254;23583;-72
2024/04/04 05:41:20;;;;;;;32.10;27.80;;;;;;;9.76;76.12;99903.81;111215;1254;22177;-71
2024/04/04 05:43:49;;;;;;;35.00;29.70;;;;;;;9.80;76.37;99904.70;111190;1254;22755;-71
2024/04/04 05:46:18;;;;;;;33.70;30.50;;;;;;;9.86;76.38;99904.09;111283;1254;23032;-71
2024/04/04 05:48:46;;;;;;;33.90;30.50;;;;;;;9.90;76.33;99908.18;111228;1248;22006;-71
2024/04/04 05:51:17;;;;;;;34.90;31.30;;;;;;;9.97;76.22;99910.31;111239;1254;22248;-75
2024/04/04 05:53:45;;;;;;;33.80;30.40;;;;;;;10.05;75.70;99913.95;111152;1254;21964;-74
2024/04/04 05:56:14;;;;;;;34.00;30.90;;;;;;;10.13;75.54;99913.70;111241;1254;21960;-72
2024/04/04 05:58:42;;;;;;;36.00;32.30;;;;;;;10.20;75.48;99917.23;111252;1254;21967;-71
2024/04/04 06:01:11;;;;;;;35.50;32.10;;;;;;;10.27;75.24;99918.11;111242;1254;21948;-71
2024/04/04 06:03:44;;;;;;;34.90;31.50;;;;;;;10.33;75.10;99919.76;111215;1254;22496;-71
2024/04/04 06:06:13;;;;;;;35.20;32.10;;;;;;;10.38;74.66;99917.48;111238;1254;23659;-73
2024/04/04 06:08:41;;;;;;;39.10;35.30;;;;;;;10.41;74.41;99918.99;111276;1254;21987;-72
2024/04/04 06:11:10;;;;;;;33.80;30.70;;;;;;;10.48;74.34;99920.60;111261;1254;22434;-71
2024/04/04 06:13:39;;;;;;;34.10;31.00;;;;;;;10.55;74.18;99922.91;111206;1254;23585;-72
2024/04/04 06:16:07;;;;;;;31.40;28.70;;;;;;;10.60;74.04;99923.55;111273;1254;22335;-72
2024/04/04 06:18:36;;;;;;;28.00;25.30;;;;;;;10.64;73.77;99922.84;111245;1254;23560;-73
2024/04/04 06:21:04;;;;;;;27.50;24.90;;;;;;;10.68;73.87;99923.45;111261;1254;21963;-72
2024/04/04 06:23:33;;;;;;;24.30;21.90;;;;;;;10.75;73.89;99924.66;111313;1254;23020;-72
2024/04/04 06:26:02;;;;;;;19.40;17.40;;;;;;;10.85;73.68;99926.37;111317;1254;22749;-71
2024/04/04 06:28:31;;;;;;;18.80;16.90;;;;;;;10.94;73.33;99930.20;111347;1254;21952;-72
2024/04/04 06:30:59;;;;;;;17.40;15.50;;;;;;;11.06;72.96;99930.73;112120;1254;22118;-72
2024/04/04 06:33:28;;;;;;;15.50;13.60;;;;;;;11.23;72.32;99926.90;112758;1254;21970;-73
2024/04/04 06:35:56;;;;;;;15.50;13.90;;;;;;;11.47;72.21;99922.30;111300;1254;23786;-72
2024/04/04 06:38:26;;;;;;;12.50;11.30;;;;;;;11.80;71.87;99913.49;111360;1251;23675;-73
2024/04/04 06:40:54;;;;;;;14.20;11.80;;;;;;;12.14;71.03;99916.48;111282;1253;21951;-71
2024/04/04 06:43:23;;;;;;;13.20;11.20;;;;;;;12.42;70.38;99919.58;111371;1253;21943;-73
2024/04/04 06:45:52;;;;;;;14.70;10.10;;;;;;;12.70;69.49;99919.91;111307;1253;21955;-72
2024/04/04 06:48:20;;;;;;;16.50;9.50;;;;;;;12.89;68.30;99918.20;111436;1253;21935;-73
2024/04/04 06:50:49;;;;;;;13.30;9.70;;;;;;;13.01;67.54;99916.34;111731;1253;21917;-74
2024/04/04 06:53:18;;;;;;;13.00;9.50;;;;;;;13.10;67.54;99917.98;111908;1251;22420;-72
2024/04/04 06:55:46;;;;;;;14.60;9.00;;;;;;;13.21;66.37;99914.23;111927;1253;21985;-71
2024/04/04 06:58:15;;;;;;;14.10;8.50;;;;;;;13.25;66.19;99914.21;112097;1253;21967;-72
2024/04/04 07:00:55;;;;;;;13.80;9.00;;;;;;;13.32;66.33;99913.73;112055;1253;23799;-72
2024/04/04 07:03:25;;;;;;;10.30;6.90;;;;;;;13.49;65.42;99915.48;111784;1252;21911;-73
2024/04/04 07:05:54;;;;;;;12.00;7.40;;;;;;;13.87;64.64;99917.30;111321;1253;21954;-73
2024/04/04 07:08:22;;;;;;;12.10;8.00;;;;;;;14.50;63.33;99924.63;111364;1253;21965;-73
2024/04/04 07:10:59;;;;;;;11.70;7.90;;;;;;;15.17;61.69;99922.77;111293;1253;21953;-72
2024/04/04 07:13:28;;;;;;;10.10;7.30;;;;;;;15.85;59.99;99920.38;111335;1253;22288;-71
2024/04/04 07:16:01;;;;;;;8.40;6.90;;;;;;;16.44;57.82;99918.05;111299;1253;23570;-72
2024/04/04 07:18:31;;;;;;;11.40;7.50;;;;;;;16.95;55.77;99916.42;111363;1253;22253;-71
2024/04/04 07:21:01;;;;;;;6.60;6.00;;;;;;;17.35;54.42;99923.91;111282;1253;23002;-71
2024/04/04 07:23:29;;;;;;;8.90;6.10;;;;;;;17.60;52.63;99929.81;111289;1253;21997;-76
2024/04/04 07:25:58;;;;;;;8.70;5.60;;;;;;;17.77;52.16;99936.00;111237;1253;23090;-71
2024/04/04 07:28:27;;;;;;;9.30;5.80;;;;;;;17.89;51.99;99938.00;111318;1253;21957;-74
2024/04/04 07:30:55;;;;;;;6.80;4.70;;;;;;;18.20;50.76;99937.61;111264;1252;21960;-74
2024/04/04 07:33:24;;;;;;;12.50;5.40;;;;;;;18.63;49.01;99942.27;111278;1253;22973;-76
2024/04/04 07:35:53;;;;;;;7.00;4.50;;;;;;;18.90;48.11;99944.23;111315;1253;23681;-75
2024/04/04 07:38:21;;;;;;;6.50;4.80;;;;;;;19.08;47.63;99943.95;111233;1253;23690;-76
2024/04/04 07:40:50;;;;;;;6.30;4.50;;;;;;;19.19;47.34;99948.30;111262;1253;22416;-75
2024/04/04 07:43:18;;;;;;;7.40;4.60;;;;;;;19.15;47.21;99950.86;111235;1253;23598;-75
2024/04/04 07:45:47;;;;;;;8.80;4.70;;;;;;;19.06;46.78;99952.43;111329;1253;21949;-75
2024/04/04 07:48:17;;;;;;;7.70;5.80;;;;;;;18.96;47.14;99953.88;111309;1241;21918;-73
2024/04/04 07:50:46;;;;;;;9.10;6.20;;;;;;;18.95;47.30;99953.67;111395;1253;21923;-75
2024/04/04 07:53:14;;;;;;;9.00;6.70;;;;;;;19.10;47.12;99956.27;111295;1253;21939;-74
2024/04/04 07:55:43;;;;;;;10.60;7.10;;;;;;;19.35;46.70;99957.20;111308;1253;23673;-76
2024/04/04 07:58:12;;;;;;;10.10;6.80;;;;;;;19.77;46.09;99958.99;111354;1253;23051;-77
2024/04/04 08:00:43;;;;;;;9.20;5.90;;;;;;;20.16;44.90;99960.19;111288;1253;22539;-75
2024/04/04 08:03:12;;;;;;;8.90;4.90;;;;;;;20.27;43.98;99958.16;111325;1253;23549;-75
2024/04/04 08:05:40;;;;;;;7.40;4.30;;;;;;;20.15;43.43;99962.38;111289;1253;23561;-74
2024/04/04 08:08:09;;;;;;;6.70;4.80;;;;;;;19.85;43.64;99965.46;111322;1253;21949;-75
2024/04/04 08:10:38;;;;;;;6.80;4.60;;;;;;;19.49;43.84;99962.21;111268;1253;21954;-76
2024/04/04 08:13:06;;;;;;;6.70;4.80;;;;;;;19.46;44.52;99958.17;111288;1253;21950;-75
2024/04/04 08:15:35;;;;;;;8.50;4.60;;;;;;;19.71;44.27;99957.09;111337;1253;23580;-74
2024/04/04 08:18:04;;;;;;;6.90;4.30;;;;;;;20.05;43.23;99957.92;111291;1253;21995;-76
2024/04/04 08:20:33;;;;;;;8.80;5.10;;;;;;;20.34;42.89;99958.44;111293;1253;23010;-75
2024/04/04 08:23:01;;;;;;;8.00;5.00;;;;;;;20.41;41.99;99957.59;111296;1253;21958;-75
2024/04/04 08:25:31;;;;;;;10.80;5.40;;;;;;;20.54;42.36;99957.64;111290;1253;22414;-74
2024/04/04 08:28:00;;;;;;;6.30;4.80;;;;;;;20.57;42.27;99960.49;111345;1253;23103;-75
2024/04/04 08:30:28;;;;;;;6.50;4.90;;;;;;;20.53;42.05;99959.69;111345;1253;22260;-73
2024/04/04 08:32:57;;;;;;;6.30;4.60;;;;;;;20.39;42.02;99960.23;111248;1253;23039;-74
2024/04/04 08:35:27;;;;;;;6.00;4.00;;;;;;;20.33;42.29;99958.95;111264;1253;23755;-75
2024/04/04 08:37:56;;;;;;;6.60;4.50;;;;;;;20.44;42.37;99956.48;111116;1253;22022;-74
2024/04/04 08:40:25;;;;;;;5.80;3.70;;;;;;;20.51;41.90;99959.52;111257;1251;21961;-74
2024/04/04 08:42:53;;;;;;;5.10;4.20;;;;;;;20.29;41.95;99960.48;111331;1253;21947;-73
2024/04/04 08:45:24;;;;;;;8.30;5.60;;;;;;;20.02;42.41;99959.72;111227;1253;22020;-78
2024/04/04 08:47:55;;;;;;;4.80;4.30;;;;;;;19.87;42.77;99963.06;111343;1253;23582;-79
2024/04/04 08:50:24;;;;;;;6.10;3.60;;;;;;;19.72;42.86;99963.39;111304;1253;21953;-74
2024/04/04 08:53:07;;;;;;;4.50;3.20;;;;;;;19.34;43.19;99964.49;111374;1253;23577;-79
2024/04/04 08:55:37;;;;;;;4.70;3.60;;;;;;;19.00;43.73;99964.21;111419;1253;23646;-78
2024/04/04 08:58:08;;;;;;;4.20;3.20;;;;;;;18.68;44.50;99966.30;111310;1253;23038;-77
2024/04/04 09:00:37;;;;;;;4.00;3.10;;;;;;;18.40;45.14;99961.09;111181;1253;22017;-80
2024/04/04 09:03:06;;;;;;;3.60;3.10;;;;;;;18.46;45.30;99959.11;111276;1253;21952;-78
2024/04/04 09:05:50;;;;;;;4.30;2.60;;;;;;;18.69;44.54;99950.62;111134;1253;22965;-78
2024/04/04 09:08:19;;;;;;;4.60;3.20;;;;;;;18.89;44.81;99952.06;112558;1253;21972;-78
2024/04/04 09:11:00;;;;;;;6.10;3.10;;;;;;;19.15;44.08;99955.88;112588;1253;21992;-78
2024/04/04 09:13:32;;;;;;;5.30;3.10;;;;;;;19.13;43.86;99958.89;111495;1252;22950;-79
2024/04/04 09:16:03;;;;;;;6.20;3.60;;;;;;;18.91;44.13;99958.92;111563;1253;21955;-81
2024/04/04 09:18:31;;;;;;;5.00;3.50;;;;;;;18.71;44.46;99960.65;111299;1253;23589;-78
2024/04/04 09:21:00;;;;;;;4.40;2.80;;;;;;;18.60;45.03;99964.52;111337;1253;22014;-78
2024/04/04 09:23:30;;;;;;;4.70;3.60;;;;;;;18.55;44.80;99965.89;111347;1253;22182;-78
2024/04/04 09:26:01;;;;;;;6.70;4.00;;;;;;;18.40;44.92;99967.66;111095;1253;23569;-79
2024/04/04 09:28:32;;;;;;;6.20;4.10;;;;;;;18.32;45.24;99969.48;110951;1253;24193;-80
2024/04/04 09:31:01;;;;;;;4.10;3.30;;;;;;;18.27;45.52;99969.00;111129;1253;22822;-80
2024/04/04 09:33:31;;;;;;;6.90;3.60;;;;;;;18.22;45.58;99971.11;111263;1253;21948;-79
2024/04/04 09:36:03;;;;;;;4.60;3.00;;;;;;;18.20;45.46;99962.45;111193;1253;24295;-80
2024/04/04 09:38:33;;;;;;;3.80;3.00;;;;;;;18.11;45.67;99959.31;111229;1253;22949;-78
2024/04/04 09:41:08;;;;;;;7.90;3.60;;;;;;;18.20;45.97;99955.67;111352;1253;22245;-78
2024/04/04 09:43:37;;;;;;;6.40;3.70;;;;;;;18.44;45.63;99954.53;111321;1248;23571;-78
2024/04/04 09:46:07;;;;;;;5.90;3.10;;;;;;;18.67;45.54;99956.62;111236;1253;21970;-77
2024/04/04 09:48:37;;;;;;;8.60;3.60;;;;;;;18.83;44.96;99954.66;111342;1253;21971;-74
2024/04/04 09:51:06;;;;;;;4.40;3.60;;;;;;;19.08;44.90;99952.41;111170;1253;186643;-76
2024/04/04 09:53:40;;;;;;;3.60;2.80;;;;;;;19.25;43.79;99955.34;111240;1252;21957;-71
2024/04/04 09:56:09;;;;;;;4.80;2.60;;;;;;;19.35;43.59;99957.54;110744;1260;23374;-72
2024/04/04 09:58:41;;;;;;;3.50;2.30;;;;;;;19.77;42.92;99952.20;110757;1260;21959;-71
2024/04/04 10:01:26;;;;;;;4.90;2.00;;;;;;;20.16;41.96;99957.71;110424;1259;23771;-73
2024/04/04 10:03:55;;;;;;;6.50;2.00;;;;;;;20.41;40.72;99954.47;110692;1259;21969;-72
2024/04/04 10:06:40;;;;;;;3.60;2.00;;;;;;;20.40;40.44;99950.11;110662;1259;23605;-72
2024/04/04 10:09:20;;;;;;;6.90;3.30;;;;;;;20.10;40.51;99952.11;110748;1260;21959;-71
2024/04/04 10:11:51;;;;;;;6.40;2.90;;;;;;;19.75;41.16;99954.41;110687;1260;23040;-72
2024/04/04 10:14:22;;;;;;;3.00;2.30;;;;;;;19.33;41.60;99953.73;111069;1252;23008;-73
2024/04/04 10:16:55;;;;;;;2.80;2.30;;;;;;;19.08;42.48;99954.60;111579;1252;22739;-73
2024/04/04 10:19:24;;;;;;;4.80;2.40;;;;;;;19.18;42.48;99953.63;111639;1252;21970;-72
2024/04/04 10:21:53;;;;;;;7.70;3.30;;;;;;;19.26;42.29;99952.02;111298;1252;22982;-78
2024/04/04 10:24:30;;;;;;;5.50;1.80;;;;;;;19.29;42.12;99954.65;111645;1252;23099;-73
2024/04/04 10:27:02;;;;;;;3.60;2.00;;;;;;;19.28;41.76;99946.69;111668;1252;23027;-75
2024/04/04 10:29:34;;;;;;;5.90;2.70;;;;;;;19.27;41.98;99947.93;111397;1252;23744;-75
2024/04/04 10:32:10;;;;;;;4.00;2.50;;;;;;;19.10;42.42;99946.48;111364;1252;23176;-73
2024/04/04 10:34:38;;;;;;;4.30;3.40;;;;;;;18.91;42.66;99946.64;111330;1252;23570;-73
2024/04/04 10:37:14;;;;;;;2.90;1.80;;;;;;;18.81;43.27;99944.45;111106;1252;23024;-73
2024/04/04 10:39:43;;;;;;;3.00;2.20;;;;;;;18.83;42.85;99944.95;110645;1258;21989;-74
2024/04/04 10:42:12;;;;;;;3.00;1.90;;;;;;;18.77;43.05;99952.65;111001;1258;21993;-73
2024/04/04 10:44:41;;;;;;;4.30;2.10;;;;;;;18.69;43.46;99953.00;110792;1258;21958;-74
2024/04/04 10:47:11;;;;;;;4.80;2.90;;;;;;;18.59;43.42;99949.21;111010;1258;22057;-73
2024/04/04 10:49:40;;;;;;;4.00;2.50;;;;;;;18.56;43.62;99949.62;110987;1258;21960;-75
2024/04/04 10:52:09;;;;;;;8.30;3.50;;;;;;;18.62;43.85;99953.02;110775;1249;22037;-74
2024/04/04 10:54:38;;;;;;;3.80;2.70;;;;;;;18.78;43.69;99946.76;111038;1258;23694;-75
2024/04/04 10:57:10;;;;;;;4.10;2.90;;;;;;;18.85;43.19;99948.03;111018;1252;23634;-75
2024/04/04 10:59:41;;;;;;;;;;;;;;;18.77;43.14;99953.86;111387;1252;22484;-75
2024/04/04 11:02:11;;;;;;;8.00;3.40;;;;;;;18.52;43.98;99952.92;111325;1252;23803;-71
2024/04/04 11:04:40;;;;;;;5.80;2.80;;;;;;;18.66;43.84;99951.73;111868;1252;23718;-73
2024/04/04 11:07:10;;;;;;;4.80;2.30;;;;;;;19.00;43.63;99947.05;111615;1252;23005;-71
2024/04/04 11:09:40;;;;;;;5.90;2.50;;;;;;;19.41;43.00;99946.86;111305;1252;23719;-73
2024/04/04 11:12:11;;;;;;;9.00;4.80;;;;;;;19.67;43.65;99944.27;110840;1252;22378;-73
2024/04/04 11:14:40;;;;;;;4.40;2.80;;;;;;;19.71;43.96;99942.55;111319;1252;22047;-72
2024/04/04 11:17:12;;;;;;;;;;;;;;;19.61;43.37;99950.91;111235;1254;21935;-79
2024/04/04 11:19:41;;;;;;;5.80;2.90;;;;;;;19.32;43.19;99948.98;111094;1254;23669;-76
2024/04/04 11:22:09;;;;;;;4.40;2.90;;;;;;;19.04;43.49;99953.90;111176;1254;23013;-75
2024/04/04 11:24:38;;;;;;;5.70;3.10;;;;;;;18.81;44.20;99951.08;111108;1241;23106;-75
2024/04/04 11:27:09;;;;;;;3.80;2.80;;;;;;;18.68;44.92;99953.23;111281;1254;21955;-75
2024/04/04 11:29:40;;;;;;;4.80;3.00;;;;;;;18.58;45.39;99950.46;110383;1254;23664;-75
2024/04/04 11:32:12;;;;;;;4.10;2.90;;;;;;;18.50;45.76;99949.76;110563;1260;22733;-75